This demonstration page uses our WeatherBlox Daily Observations layout. Learn more.

Left ArrowRight Arrow

41.55636, -103.73856

Hourly Observations for January 7, 2015

Temp ( °F °C ) Dew Point ( °F °C ) Humidity (%) Winds ( mph kmh ) Pressure ( in mb ) Visibility ( mi km ) Precip ( " mm )
12:53 am 00:53 Cloudy 11 -11.7 3 -16.1 70 70 NNE 10 17 30.87 1045 10 16 0.00 0.00
1:16 am 01:16 Cloudy 10 -12 3 -16 72 72 NNE 8 13 31.07 1052 10 16 0.00 0.00
1:53 am 01:53 Cloudy 11 -11.7 4 -15.6 73 73 N 8 13 30.91 1047 10 16 0.00 0.00
2:53 am 02:53 Cloudy 11 -11.7 4 -15.6 73 73 NE 5 7 30.95 1048 10 16 0.00 0.00
3:26 am 03:26 Cloudy 10 -12 3 -16 72 72 NNE 5 7 31.12 1054 10 16 0.00 0.00
3:53 am 03:53 Cloudy 11 -11.7 4 -15.6 73 73 NNE 5 7 30.96 1048 10 16 0.00 0.00
4:08 am 04:08 Cloudy 10 -12 3 -16 72 72 NNE 3 6 31.12 1054 10 16 0.00 0.00
4:33 am 04:33 Cloudy 11 -11.7 4 -15.6 73 73 Calm 31.12 1054 10 16 0.00 0.00
4:51 am 04:51 Cloudy with Light Snow 10 -12 3 -16 72 72 Calm 31.12 1054 6 10 0.00 0.03
4:53 am 04:53 Cloudy with Light Snow 11 -11.7 4 -15.6 73 73 Calm 30.98 1049 5 8 0.00 0.03
5:15 am 05:15 Cloudy with Light Snow 11 -11.7 5 -15 77 77 Calm 31.12 1054 3 4 0.00 0.03
5:30 am 05:30 Cloudy with Light Snow 10 -12 7 -14 85 85 NNW 3 6 31.12 1054 6 10 0.00 0.00
5:53 am 05:53 Cloudy with Light Snow 11 -11.7 5 -15 77 77 N 7 11 28.07 951 10 16 0.00 0.03
6:53 am 06:53 Cloudy 9 -12.8 4 -15.6 80 80 E 6 9 28.11 952 9 14 0.00 0.03
7:53 am 07:53 Cloudy 10 -12.2 3 -16.1 73 73 ESE 5 7 28.13 953 10 16 0.00 0.03
8:53 am 08:53 Cloudy 10 -12.2 5 -15 80 80 SSE 8 13 28.14 953 10 16 0.00 0.00
9:53 am 09:53 Cloudy 10 -12.2 5 -15 80 80 SE 8 13 28.14 953 10 16 0.00 0.00
10:53 am 10:53 Mostly Cloudy 11 -11.7 6 -14.4 81 81 SE 10 17 28.08 951 10 16 0.00 0.00
11:53 am 11:53 Mostly Cloudy 13 -10.6 6 -14.4 74 74 ESE 12 19 30.97 1049 10 16 0.00 0.00
12:53 pm 12:53 Sunny 13 -10.6 7 -13.9 77 77 ESE 14 22 30.90 1046 10 16 0.00 0.00
1:53 pm 13:53 Sunny 14 -10 8 -13.3 77 77 E 16 26 30.83 1044 10 16 0.00 0.00
2:53 pm 14:53 Sunny 16 -8.9 10 -12.2 77 77 ESE 13 20 30.77 1042 10 16 0.00 0.00
3:53 pm 15:53 Sunny 20 -6.7 12 -11.1 71 71 SSE 15 24 30.70 1040 10 16 0.00 0.00
4:53 pm 16:53 Clear 19 -7.2 12 -11.1 74 74 SSE 13 20 30.65 1038 10 16 0.00 0.00
5:53 pm 17:53 Clear 19 -7.2 12 -11.1 74 74 SSE 12 19 30.59 1036 10 16 0.00 0.00
6:53 pm 18:53 Clear 19 -7.2 12 -11.1 74 74 SSE 10 17 30.52 1034 10 16 0.00 0.00
7:53 pm 19:53 Clear 20 -6.7 14 -10 78 78 S 13 20 30.43 1031 10 16 0.00 0.00
8:53 pm 20:53 Clear 21 -6.1 14 -10 74 74 SE 8 13 30.36 1028 10 16 0.00 0.00
9:53 pm 21:53 Clear 16 -8.9 11 -11.7 80 80 E 12 19 30.30 1026 10 16 0.00 0.00
10:53 pm 22:53 Clear 15 -9.4 10 -12.2 80 80 E 8 13 30.25 1024 10 16 0.00 0.00
11:53 pm 23:53 Clear 17 -8.3 12 -11.1 80 80 N 8 13 30.21 1023 10 16 0.00 0.00

Powered by AerisWeather